createdAt,value
2016-11-13T00:00:42.315Z,0
2016-11-13T00:01:42.294Z,0
2016-11-13T00:02:42.274Z,0
2016-11-13T00:03:42.574Z,0
2016-11-13T00:04:42.237Z,0
2016-11-13T00:05:42.208Z,0
2016-11-13T00:06:42.198Z,0
2016-11-13T00:07:42.170Z,0
2016-11-13T00:08:42.187Z,0
2016-11-13T00:09:42.133Z,0
2016-11-13T00:10:42.110Z,0
2016-11-13T00:11:42.406Z,0
2016-11-13T00:12:42.071Z,0
2016-11-13T00:13:42.048Z,0
2016-11-13T00:14:42.032Z,0
2016-11-13T00:15:42.008Z,0
2016-11-13T00:16:41.982Z,0
2016-11-13T00:17:42.277Z,0
2016-11-13T00:18:41.940Z,0
2016-11-13T00:19:41.921Z,0
2016-11-13T00:20:41.896Z,0
2016-11-13T00:21:42.193Z,0
2016-11-13T00:22:41.882Z,0
2016-11-13T00:23:41.836Z,0
2016-11-13T00:24:41.821Z,0
2016-11-13T00:25:41.795Z,0
2016-11-13T00:26:41.770Z,0
2016-11-13T00:27:41.748Z,0
2016-11-13T00:28:41.741Z,0
2016-11-13T00:29:42.029Z,0
2016-11-13T00:30:41.688Z,0
2016-11-13T00:31:41.670Z,0
2016-11-13T00:32:41.963Z,0
2016-11-13T00:33:41.631Z,0
2016-11-13T00:34:41.959Z,0
2016-11-13T00:35:41.586Z,0
2016-11-13T00:36:41.566Z,0
2016-11-13T00:37:41.547Z,0
2016-11-13T00:38:41.874Z,0
2016-11-13T00:39:41.503Z,0
2016-11-13T00:40:41.486Z,0
2016-11-13T00:41:41.472Z,0
2016-11-13T00:42:41.784Z,0
2016-11-13T00:43:41.419Z,0
2016-11-13T00:44:41.399Z,0
2016-11-13T00:45:41.382Z,0
2016-11-13T00:46:42.023Z,0
2016-11-13T00:47:41.649Z,0
2016-11-13T00:48:41.356Z,0
2016-11-13T00:49:41.294Z,0
2016-11-13T00:50:41.591Z,0
2016-11-13T00:51:41.282Z,0
2016-11-13T00:52:41.235Z,0
2016-11-13T00:53:41.221Z,0
2016-11-13T00:54:41.202Z,0
2016-11-13T00:55:41.487Z,0
2016-11-13T00:56:41.196Z,0
2016-11-13T00:57:41.448Z,0
2016-11-13T00:58:41.108Z,0
2016-11-13T00:59:41.458Z,0
2016-11-13T01:00:41.074Z,0
2016-11-13T01:01:41.677Z,0
2016-11-13T01:02:41.031Z,0
2016-11-13T01:03:41.009Z,0
2016-11-13T01:04:41.022Z,0
2016-11-13T01:05:41.282Z,0
2016-11-13T01:06:41.294Z,0
2016-11-13T01:07:41.585Z,0
2016-11-13T01:08:41.221Z,0
2016-11-13T01:09:40.925Z,0
2016-11-13T01:10:41.171Z,0
2016-11-13T01:11:40.843Z,0
2016-11-13T01:12:40.825Z,0
2016-11-13T01:13:41.113Z,0
2016-11-13T01:14:40.778Z,0
2016-11-13T01:15:40.762Z,0
2016-11-13T01:16:40.740Z,0
2016-11-13T01:17:40.717Z,0
2016-11-13T01:18:41.329Z,0
2016-11-13T01:19:40.676Z,0
2016-11-13T01:20:40.965Z,0
2016-11-13T01:21:40.660Z,0
2016-11-13T01:22:40.613Z,0
2016-11-13T01:23:40.585Z,0
2016-11-13T01:24:40.611Z,0
2016-11-13T01:25:40.553Z,0
2016-11-13T01:26:40.533Z,0
2016-11-13T01:27:40.511Z,0
2016-11-13T01:28:40.527Z,0
2016-11-13T01:29:40.981Z,0
2016-11-13T01:30:40.447Z,0
2016-11-13T01:31:40.739Z,0
2016-11-13T01:32:40.719Z,0
2016-11-13T01:33:40.389Z,0
2016-11-13T01:34:40.684Z,0
2016-11-13T01:35:40.347Z,0
2016-11-13T01:36:40.674Z,0
2016-11-13T01:37:40.294Z,0
2016-11-13T01:38:40.278Z,0
2016-11-13T01:39:40.604Z,0
2016-11-13T01:40:40.238Z,0
2016-11-13T01:41:40.218Z,0
2016-11-13T01:42:40.195Z,0
2016-11-13T01:43:40.492Z,0
2016-11-13T01:44:40.153Z,0
2016-11-13T01:45:40.138Z,0
2016-11-13T01:46:40.114Z,0
2016-11-13T01:47:40.092Z,0
2016-11-13T01:48:40.072Z,0
2016-11-13T01:49:40.362Z,0
2016-11-13T01:50:40.688Z,0
2016-11-13T01:51:40.324Z,0
2016-11-13T01:52:40.301Z,0
2016-11-13T01:53:39.968Z,0
2016-11-13T01:54:39.988Z,0
2016-11-13T01:55:40.238Z,0
2016-11-13T01:56:39.904Z,0
2016-11-13T01:57:40.230Z,0
2016-11-13T01:58:39.862Z,0
2016-11-13T01:59:39.842Z,0
2016-11-13T02:00:40.132Z,0
2016-11-13T02:01:39.798Z,0
2016-11-13T02:02:39.802Z,0
2016-11-13T02:03:39.761Z,0
2016-11-13T02:04:40.044Z,0
2016-11-13T02:05:40.034Z,0
2016-11-13T02:06:40.008Z,0
2016-11-13T02:07:39.989Z,0
2016-11-13T02:08:39.651Z,0
2016-11-13T02:09:39.641Z,0
2016-11-13T02:10:39.927Z,0
2016-11-13T02:11:39.614Z,0
2016-11-13T02:12:39.571Z,0
2016-11-13T02:13:39.552Z,0
2016-11-13T02:14:39.568Z,0
2016-11-13T02:15:39.520Z,0
2016-11-13T02:16:39.486Z,0
2016-11-13T02:17:39.472Z,0
2016-11-13T02:18:39.443Z,0
2016-11-13T02:19:39.434Z,0
2016-11-13T02:20:39.713Z,0
2016-11-13T02:21:39.413Z,0
2016-11-13T02:22:39.688Z,0
2016-11-13T02:23:39.979Z,0
2016-11-13T02:24:39.328Z,0
2016-11-13T02:25:39.334Z,0
2016-11-13T02:26:39.280Z,0
2016-11-13T02:27:39.256Z,0
2016-11-13T02:28:39.239Z,0
2016-11-13T02:29:39.233Z,0
2016-11-13T02:30:39.507Z,0
2016-11-13T02:31:39.493Z,0
2016-11-13T02:32:39.157Z,0
2016-11-13T02:33:39.447Z,0
2016-11-13T02:34:39.422Z,0
2016-11-13T02:35:39.087Z,0
2016-11-13T02:36:39.074Z,0
2016-11-13T02:37:39.053Z,0
2016-11-13T02:38:39.345Z,0
2016-11-13T02:39:39.006Z,0
2016-11-13T02:40:39.340Z,0
2016-11-13T02:41:38.970Z,0
2016-11-13T02:42:38.942Z,0
2016-11-13T02:43:38.934Z,0
2016-11-13T02:44:38.907Z,0
2016-11-13T02:45:38.931Z,0
2016-11-13T02:46:38.862Z,0
2016-11-13T02:47:38.869Z,0
2016-11-13T02:48:38.821Z,0
2016-11-13T02:49:38.795Z,0
2016-11-13T02:50:39.091Z,0
2016-11-13T02:51:38.764Z,0
2016-11-13T02:52:38.759Z,0
2016-11-13T02:53:38.717Z,0
2016-11-13T02:54:39.044Z,0
2016-11-13T02:55:38.675Z,0
2016-11-13T02:56:38.687Z,0
2016-11-13T02:57:38.666Z,0
2016-11-13T02:58:38.941Z,0
2016-11-13T02:59:39.217Z,0
2016-11-13T03:00:38.573Z,0
2016-11-13T03:01:38.590Z,0
2016-11-13T03:02:38.533Z,0
2016-11-13T03:03:38.509Z,0
2016-11-13T03:04:38.487Z,0
2016-11-13T03:05:38.783Z,0
2016-11-13T03:06:38.460Z,0
2016-11-13T03:07:38.428Z,0
2016-11-13T03:08:38.407Z,0
2016-11-13T03:09:38.718Z,0
2016-11-13T03:10:38.369Z,0
2016-11-13T03:11:38.668Z,0
2016-11-13T03:12:38.317Z,0
2016-11-13T03:13:38.297Z,0
2016-11-13T03:14:38.593Z,0
2016-11-13T03:15:38.262Z,0
2016-11-13T03:16:38.271Z,0
2016-11-13T03:17:38.220Z,0
2016-11-13T03:18:38.196Z,0
2016-11-13T03:19:38.173Z,0
2016-11-13T03:20:38.158Z,0
2016-11-13T03:21:38.135Z,0
2016-11-13T03:22:38.113Z,0
2016-11-13T03:23:38.087Z,0
2016-11-13T03:24:38.070Z,0
2016-11-13T03:25:38.085Z,0
2016-11-13T03:26:38.027Z,0
2016-11-13T03:27:38.012Z,0
2016-11-13T03:28:38.000Z,0
2016-11-13T03:29:38.178Z,0
2016-11-13T03:30:38.268Z,0
2016-11-13T03:31:37.964Z,0
2016-11-13T03:32:37.903Z,0
2016-11-13T03:33:38.194Z,0
2016-11-13T03:34:38.172Z,0
2016-11-13T03:35:37.843Z,0
2016-11-13T03:36:38.133Z,0
2016-11-13T03:37:37.793Z,0
2016-11-13T03:38:38.097Z,0
2016-11-13T03:39:37.769Z,0
2016-11-13T03:40:38.045Z,0
2016-11-13T03:41:37.716Z,0
2016-11-13T03:42:38.373Z,0
2016-11-13T03:43:38.015Z,0
2016-11-13T03:44:37.657Z,0
2016-11-13T03:45:37.634Z,0
2016-11-13T03:46:37.927Z,0
2016-11-13T03:47:37.591Z,0
2016-11-13T03:48:37.612Z,0
2016-11-13T03:49:37.573Z,0
2016-11-13T03:50:37.530Z,0
2016-11-13T03:51:37.510Z,0
2016-11-13T03:52:37.487Z,0
2016-11-13T03:53:37.468Z,0
2016-11-13T03:54:37.444Z,0
2016-11-13T03:55:37.422Z,0
2016-11-13T03:56:37.393Z,0
2016-11-13T03:57:37.379Z,0
2016-11-13T03:58:37.361Z,0
2016-11-13T03:59:37.341Z,0
2016-11-13T04:00:37.315Z,0
2016-11-13T04:01:37.311Z,0
2016-11-13T04:02:37.271Z,0
2016-11-13T04:03:37.262Z,0
2016-11-13T04:04:37.554Z,0
2016-11-13T04:05:37.216Z,0
2016-11-13T04:06:37.190Z,0
2016-11-13T04:07:37.173Z,0
2016-11-13T04:08:37.465Z,0
2016-11-13T04:09:38.066Z,0
2016-11-13T04:10:37.415Z,0
2016-11-13T04:11:37.397Z,0
2016-11-13T04:12:37.692Z,0
2016-11-13T04:13:37.363Z,0
2016-11-13T04:14:37.021Z,0
2016-11-13T04:15:37.008Z,0
2016-11-13T04:16:36.980Z,0
2016-11-13T04:17:36.957Z,0
2016-11-13T04:18:36.938Z,0
2016-11-13T04:19:36.923Z,0
2016-11-13T04:20:37.226Z,0
2016-11-13T04:21:36.874Z,0
2016-11-13T04:22:36.855Z,0
2016-11-13T04:23:36.829Z,0
2016-11-13T04:24:36.812Z,0
2016-11-13T04:25:36.791Z,0
2016-11-13T04:26:36.823Z,0
2016-11-13T04:27:36.751Z,0
2016-11-13T04:28:36.732Z,0
2016-11-13T04:29:36.707Z,0
2016-11-13T04:30:36.682Z,0
2016-11-13T04:31:36.975Z,0
2016-11-13T04:32:36.954Z,0
2016-11-13T04:33:36.966Z,0
2016-11-13T04:34:36.605Z,0
2016-11-13T04:35:36.579Z,0
2016-11-13T04:36:36.562Z,0
2016-11-13T04:37:36.853Z,0
2016-11-13T04:38:36.559Z,0
2016-11-13T04:39:36.810Z,0
2016-11-13T04:40:36.472Z,0
2016-11-13T04:41:36.458Z,0
2016-11-13T04:42:36.483Z,0
2016-11-13T04:43:36.725Z,0
2016-11-13T04:44:36.397Z,0
2016-11-13T04:45:36.370Z,0
2016-11-13T04:46:36.354Z,0
2016-11-13T04:47:36.955Z,0
2016-11-13T04:48:36.300Z,0
2016-11-13T04:49:36.646Z,0
2016-11-13T04:50:36.302Z,0
2016-11-13T04:51:36.552Z,0
2016-11-13T04:52:36.234Z,0
2016-11-13T04:53:36.207Z,0
2016-11-13T04:54:36.182Z,0
2016-11-13T04:55:36.165Z,0
2016-11-13T04:56:36.144Z,0
2016-11-13T04:57:36.432Z,0
2016-11-13T04:58:36.115Z,0
2016-11-13T04:59:36.074Z,0
2016-11-13T05:00:36.065Z,0
2016-11-13T05:01:36.347Z,0
2016-11-13T05:02:36.381Z,0
2016-11-13T05:03:36.028Z,0
2016-11-13T05:04:35.990Z,0
2016-11-13T05:05:35.961Z,0
2016-11-13T05:06:36.251Z,0
2016-11-13T05:07:35.915Z,0
2016-11-13T05:08:35.894Z,0
2016-11-13T05:09:35.876Z,0
2016-11-13T05:10:35.856Z,0
2016-11-13T05:11:36.142Z,0
2016-11-13T05:12:35.815Z,0
2016-11-13T05:13:35.784Z,0
2016-11-13T05:14:35.774Z,0
2016-11-13T05:15:35.744Z,0
2016-11-13T05:16:35.744Z,0
2016-11-13T05:17:36.019Z,0
2016-11-13T05:18:35.681Z,0
2016-11-13T05:19:35.660Z,0
2016-11-13T05:20:35.649Z,0
2016-11-13T05:21:35.620Z,0
2016-11-13T05:22:35.597Z,0
2016-11-13T05:23:35.576Z,0
2016-11-13T05:24:35.567Z,0
2016-11-13T05:25:35.850Z,0
2016-11-13T05:26:35.511Z,0
2016-11-13T05:27:35.494Z,0
2016-11-13T05:28:35.790Z,0
2016-11-13T05:29:36.219Z,0
2016-11-13T05:30:35.741Z,0
2016-11-13T05:31:35.407Z,0
2016-11-13T05:32:35.391Z,0
2016-11-13T05:33:35.686Z,0
2016-11-13T05:34:35.374Z,0
2016-11-13T05:35:35.320Z,0
2016-11-13T05:36:35.307Z,0
2016-11-13T05:37:35.283Z,0
2016-11-13T05:38:35.261Z,0
2016-11-13T05:39:35.242Z,0
2016-11-13T05:40:35.224Z,0
2016-11-13T05:41:35.204Z,0
2016-11-13T05:42:35.177Z,0
2016-11-13T05:43:35.156Z,0
2016-11-13T05:44:35.481Z,0
2016-11-13T05:45:35.120Z,0
2016-11-13T05:46:35.097Z,0
2016-11-13T05:47:35.077Z,0
2016-11-13T05:48:35.058Z,0
2016-11-13T05:49:35.379Z,0
2016-11-13T05:50:35.358Z,0
2016-11-13T05:51:34.995Z,0
2016-11-13T05:52:34.975Z,0
2016-11-13T05:53:35.044Z,0
2016-11-13T05:54:34.924Z,0
2016-11-13T05:55:34.907Z,0
2016-11-13T05:56:35.515Z,0
2016-11-13T05:57:34.868Z,0
2016-11-13T05:58:34.855Z,0
2016-11-13T05:59:34.825Z,0
2016-11-13T06:00:34.813Z,0
2016-11-13T06:01:35.133Z,0
2016-11-13T06:02:34.764Z,0
2016-11-13T06:03:34.740Z,0
2016-11-13T06:04:35.055Z,0
2016-11-13T06:05:34.698Z,0
2016-11-13T06:06:34.687Z,0
2016-11-13T06:07:34.982Z,0
2016-11-13T06:08:34.637Z,0
2016-11-13T06:09:34.622Z,0
2016-11-13T06:10:34.634Z,0
2016-11-13T06:11:34.615Z,0
2016-11-13T06:12:34.869Z,0
2016-11-13T06:13:34.534Z,0
2016-11-13T06:14:34.515Z,0
2016-11-13T06:15:34.808Z,0
2016-11-13T06:16:34.539Z,0
2016-11-13T06:17:34.447Z,0
2016-11-13T06:18:34.425Z,0
2016-11-13T06:19:34.418Z,0
2016-11-13T06:20:34.390Z,0
2016-11-13T06:21:34.397Z,0
2016-11-13T06:22:34.382Z,0
2016-11-13T06:23:34.333Z,0
2016-11-13T06:24:34.679Z,0
2016-11-13T06:25:34.291Z,0
2016-11-13T06:26:34.267Z,0
2016-11-13T06:27:34.295Z,0
2016-11-13T06:28:34.272Z,0
2016-11-13T06:29:34.200Z,0
2016-11-13T06:30:34.183Z,0
2016-11-13T06:31:34.153Z,0
2016-11-13T06:32:34.143Z,0
2016-11-13T06:33:34.118Z,0
2016-11-13T06:34:34.409Z,0
2016-11-13T06:35:34.074Z,0
2016-11-13T06:36:34.050Z,0
2016-11-13T06:37:34.037Z,0
2016-11-13T06:38:34.007Z,0
2016-11-13T06:39:33.990Z,0
2016-11-13T06:40:34.279Z,0
2016-11-13T06:41:33.993Z,0
2016-11-13T06:42:33.926Z,0
2016-11-13T06:43:33.908Z,0
2016-11-13T06:44:34.237Z,0
2016-11-13T06:45:34.194Z,0
2016-11-13T06:46:34.157Z,0
2016-11-13T06:47:34.143Z,0
2016-11-13T06:48:34.436Z,0
2016-11-13T06:49:33.784Z,5
2016-11-13T06:50:33.762Z,5
2016-11-13T06:51:33.738Z,5
2016-11-13T06:52:33.717Z,5
2016-11-13T06:53:34.026Z,5
2016-11-13T06:54:33.723Z,5
2016-11-13T06:55:33.666Z,5
2016-11-13T06:56:33.947Z,5
2016-11-13T06:57:33.936Z,5
2016-11-13T06:58:33.931Z,5
2016-11-13T06:59:33.901Z,5
2016-11-13T07:00:33.559Z,5
2016-11-13T07:01:33.848Z,5
2016-11-13T07:02:33.525Z,10
2016-11-13T07:03:33.503Z,10
2016-11-13T07:04:33.523Z,10
2016-11-13T07:05:33.800Z,10
2016-11-13T07:06:33.437Z,15
2016-11-13T07:07:33.412Z,15
2016-11-13T07:08:33.400Z,15
2016-11-13T07:09:33.711Z,15
2016-11-13T07:10:33.977Z,15
2016-11-13T07:11:33.326Z,15
2016-11-13T07:12:33.619Z,20
2016-11-13T07:13:33.282Z,20
2016-11-13T07:14:33.575Z,20
2016-11-13T07:15:33.243Z,20
2016-11-13T07:16:33.217Z,20
2016-11-13T07:17:33.765Z,20
2016-11-13T07:18:33.180Z,25
2016-11-13T07:19:33.160Z,25
2016-11-13T07:20:33.134Z,25
2016-11-13T07:21:33.169Z,25
2016-11-13T07:22:33.094Z,25
2016-11-13T07:23:33.073Z,25
2016-11-13T07:24:33.393Z,25
2016-11-13T07:25:33.367Z,25
2016-11-13T07:26:33.029Z,25
2016-11-13T07:27:33.031Z,25
2016-11-13T07:28:32.972Z,25
2016-11-13T07:29:33.360Z,20
2016-11-13T07:30:33.136Z,20
2016-11-13T07:31:32.910Z,20
2016-11-13T07:32:32.893Z,20
2016-11-13T07:33:32.924Z,20
2016-11-13T07:34:32.846Z,20
2016-11-13T07:35:32.824Z,25
2016-11-13T07:36:32.803Z,25
2016-11-13T07:37:32.790Z,25
2016-11-13T07:38:32.764Z,25
2016-11-13T07:39:32.748Z,25
2016-11-13T07:40:33.031Z,30
2016-11-13T07:41:32.706Z,30
2016-11-13T07:42:32.682Z,30
2016-11-13T07:43:32.659Z,30
2016-11-13T07:44:33.439Z,30
2016-11-13T07:45:32.626Z,30
2016-11-13T07:46:32.928Z,30
2016-11-13T07:47:32.638Z,30
2016-11-13T07:48:32.559Z,30
2016-11-13T07:49:32.547Z,30
2016-11-13T07:50:32.518Z,30
2016-11-13T07:51:32.813Z,30
2016-11-13T07:52:32.478Z,30
2016-11-13T07:53:32.781Z,35
2016-11-13T07:54:32.437Z,35
2016-11-13T07:55:32.735Z,35
2016-11-13T07:56:32.399Z,35
2016-11-13T07:57:32.690Z,35
2016-11-13T07:58:32.682Z,40
2016-11-13T07:59:32.660Z,40
2016-11-13T08:00:32.653Z,40
2016-11-13T08:01:32.308Z,40
2016-11-13T08:02:32.275Z,45
2016-11-13T08:03:32.265Z,45
2016-11-13T08:04:32.229Z,45
2016-11-13T08:05:32.215Z,45
2016-11-13T08:06:32.509Z,45
2016-11-13T08:07:32.172Z,45
2016-11-13T08:08:32.160Z,45
2016-11-13T08:09:32.142Z,45
2016-11-13T08:10:32.113Z,50
2016-11-13T08:11:32.092Z,50
2016-11-13T08:12:32.075Z,50
2016-11-13T08:13:32.058Z,50
2016-11-13T08:14:32.044Z,50
2016-11-13T08:15:32.020Z,50
2016-11-13T08:16:32.017Z,55
2016-11-13T08:17:31.975Z,55
2016-11-13T08:18:31.959Z,50
2016-11-13T08:19:32.277Z,55
2016-11-13T08:20:31.937Z,55
2016-11-13T08:21:31.892Z,50
2016-11-13T08:22:31.940Z,55
2016-11-13T08:23:31.860Z,55
2016-11-13T08:24:31.839Z,55
2016-11-13T08:25:31.817Z,55
2016-11-13T08:26:31.830Z,55
2016-11-13T08:27:31.779Z,55
2016-11-13T08:28:32.082Z,55
2016-11-13T08:29:32.056Z,55
2016-11-13T08:30:31.716Z,60
2016-11-13T08:31:32.110Z,60
2016-11-13T08:32:31.670Z,60
2016-11-13T08:33:31.654Z,60
2016-11-13T08:34:31.629Z,60
2016-11-13T08:35:32.276Z,65
2016-11-13T08:36:31.600Z,65
2016-11-13T08:37:31.578Z,65
2016-11-13T08:38:31.558Z,65
2016-11-13T08:39:31.544Z,70
2016-11-13T08:40:31.527Z,70
2016-11-13T08:41:31.501Z,70
2016-11-13T08:42:31.480Z,70
2016-11-13T08:43:31.807Z,75
2016-11-13T08:44:31.442Z,75
2016-11-13T08:45:31.785Z,80
2016-11-13T08:46:31.416Z,80
2016-11-13T08:47:31.391Z,85
2016-11-13T08:48:31.368Z,85
2016-11-13T08:49:31.349Z,90
2016-11-13T08:50:31.333Z,90
2016-11-13T08:51:31.309Z,90
2016-11-13T08:52:31.632Z,90
2016-11-13T08:53:31.272Z,90
2016-11-13T08:54:31.253Z,90
2016-11-13T08:55:31.232Z,90
2016-11-13T08:56:31.211Z,90
2016-11-13T08:57:31.189Z,85
2016-11-13T08:58:31.178Z,85
2016-11-13T08:59:31.582Z,85
2016-11-13T09:00:31.170Z,85
2016-11-13T09:01:31.443Z,85
2016-11-13T09:02:31.100Z,85
2016-11-13T09:03:31.721Z,85
2016-11-13T09:04:31.152Z,85
2016-11-13T09:05:31.048Z,85
2016-11-13T09:06:31.020Z,85
2016-11-13T09:07:31.001Z,90
2016-11-13T09:08:31.322Z,90
2016-11-13T09:09:30.961Z,95
2016-11-13T09:10:30.954Z,100
2016-11-13T09:11:30.926Z,105
2016-11-13T09:12:30.905Z,110
2016-11-13T09:13:30.888Z,115
2016-11-13T09:14:30.864Z,120
2016-11-13T09:15:31.158Z,125
2016-11-13T09:16:31.144Z,130
2016-11-13T09:17:30.809Z,140
2016-11-13T09:18:31.157Z,145
2016-11-13T09:19:31.085Z,145
2016-11-13T09:20:30.751Z,150
2016-11-13T09:21:30.746Z,155
2016-11-13T09:22:31.347Z,155
2016-11-13T09:23:30.702Z,160
2016-11-13T09:24:31.041Z,160
2016-11-13T09:25:30.975Z,160
2016-11-13T09:26:30.638Z,160
2016-11-13T09:27:30.964Z,160
2016-11-13T09:28:30.925Z,155
2016-11-13T09:29:30.598Z,155
2016-11-13T09:30:31.084Z,150
2016-11-13T09:31:31.490Z,145
2016-11-13T09:32:30.535Z,140
2016-11-13T09:33:30.520Z,140
2016-11-13T09:34:30.505Z,135
2016-11-13T09:35:30.481Z,130
2016-11-13T09:36:30.466Z,125
2016-11-13T09:37:30.441Z,120
2016-11-13T09:38:30.423Z,115
2016-11-13T09:39:30.405Z,110
2016-11-13T09:40:30.384Z,100
2016-11-13T09:41:30.363Z,95
2016-11-13T09:42:30.385Z,95
2016-11-13T09:43:30.340Z,90
2016-11-13T09:44:30.321Z,85
2016-11-13T09:45:30.292Z,85
2016-11-13T09:46:30.283Z,80
2016-11-13T09:47:30.262Z,80
2016-11-13T09:48:30.233Z,80
2016-11-13T09:49:30.229Z,75
2016-11-13T09:50:30.204Z,75
2016-11-13T09:51:30.179Z,75
2016-11-13T09:52:30.492Z,75
2016-11-13T09:53:30.152Z,75
2016-11-13T09:54:30.135Z,75
2016-11-13T09:55:30.119Z,75
2016-11-13T09:56:30.095Z,70
2016-11-13T09:57:30.071Z,70
2016-11-13T09:58:30.056Z,70
2016-11-13T09:59:30.036Z,70
2016-11-13T10:00:30.057Z,65
2016-11-13T10:01:30.003Z,65
2016-11-13T10:02:30.288Z,65
2016-11-13T10:03:30.275Z,65
2016-11-13T10:04:30.257Z,65
2016-11-13T10:05:29.923Z,65
2016-11-13T10:06:30.221Z,65
2016-11-13T10:07:29.895Z,65
2016-11-13T10:08:29.874Z,70
2016-11-13T10:09:29.851Z,70
2016-11-13T10:10:29.829Z,75
2016-11-13T10:11:29.809Z,75
2016-11-13T10:12:30.498Z,80
2016-11-13T10:13:29.794Z,85
2016-11-13T10:14:29.762Z,85
2016-11-13T10:15:29.741Z,85
2016-11-13T10:16:30.046Z,90
2016-11-13T10:17:29.713Z,95
2016-11-13T10:18:30.002Z,100
2016-11-13T10:19:29.668Z,100
2016-11-13T10:20:29.960Z,105
2016-11-13T10:21:29.631Z,105
2016-11-13T10:22:29.624Z,110
2016-11-13T10:23:29.602Z,110
2016-11-13T10:24:29.913Z,115
2016-11-13T10:25:29.557Z,115
2016-11-13T10:26:29.535Z,115
2016-11-13T10:27:29.828Z,120
2016-11-13T10:28:29.502Z,120
2016-11-13T10:29:29.484Z,120
2016-11-13T10:30:29.781Z,125
2016-11-13T10:31:29.457Z,120
2016-11-13T10:32:29.431Z,120
2016-11-13T10:33:29.719Z,120
2016-11-13T10:34:29.389Z,125
2016-11-13T10:35:29.366Z,125
2016-11-13T10:36:29.661Z,125
2016-11-13T10:37:29.336Z,130
2016-11-13T10:38:29.628Z,135
2016-11-13T10:39:29.297Z,135
2016-11-13T10:40:29.277Z,140
2016-11-13T10:41:29.660Z,140
2016-11-13T10:42:29.243Z,145
2016-11-13T10:43:29.220Z,150
2016-11-13T10:44:29.212Z,155
2016-11-13T10:45:29.188Z,160
2016-11-13T10:46:29.797Z,165
2016-11-13T10:47:29.467Z,170
2016-11-13T10:48:29.136Z,175
2016-11-13T10:49:29.121Z,180
2016-11-13T10:50:29.099Z,185
2016-11-13T10:51:29.083Z,190
2016-11-13T10:52:29.067Z,200
2016-11-13T10:53:29.409Z,205
2016-11-13T10:54:29.030Z,210
2016-11-13T10:55:29.011Z,220
2016-11-13T10:56:29.310Z,220
2016-11-13T10:57:28.986Z,230
2016-11-13T10:58:29.272Z,235
2016-11-13T10:59:28.941Z,245
2016-11-13T11:00:28.930Z,255
2016-11-13T11:01:28.922Z,250
2016-11-13T11:02:29.275Z,250
2016-11-13T11:03:28.873Z,260
2016-11-13T11:04:29.265Z,265
2016-11-13T11:05:28.845Z,275
2016-11-13T11:06:28.827Z,280
2016-11-13T11:07:29.132Z,285
2016-11-13T11:08:29.111Z,285
2016-11-13T11:09:28.769Z,290
2016-11-13T11:10:28.760Z,295
2016-11-13T11:11:29.085Z,290
2016-11-13T11:12:28.730Z,290
2016-11-13T11:13:28.717Z,285
2016-11-13T11:14:29.006Z,280
2016-11-13T11:15:28.673Z,270
2016-11-13T11:16:28.676Z,270
2016-11-13T11:17:28.965Z,265
2016-11-13T11:18:28.946Z,255
2016-11-13T11:19:28.932Z,255
2016-11-13T11:20:29.232Z,250
2016-11-13T11:21:28.593Z,240
2016-11-13T11:22:28.879Z,235
2016-11-13T11:23:28.559Z,230
2016-11-13T11:24:28.540Z,225
2016-11-13T11:25:28.530Z,220
2016-11-13T11:26:28.508Z,220
2016-11-13T11:27:28.486Z,220
2016-11-13T11:28:29.116Z,210
2016-11-13T11:29:28.468Z,205
2016-11-13T11:30:28.672Z,205
2016-11-13T11:31:29.073Z,205
2016-11-13T11:32:28.737Z,200
2016-11-13T11:33:28.399Z,190
2016-11-13T11:34:28.700Z,185
2016-11-13T11:35:28.367Z,185
2016-11-13T11:36:28.386Z,185
2016-11-13T11:37:28.337Z,180
2016-11-13T11:38:28.669Z,180
2016-11-13T11:39:28.309Z,175
2016-11-13T11:40:28.603Z,170
2016-11-13T11:41:28.376Z,170
2016-11-13T11:42:28.260Z,165
2016-11-13T11:43:28.243Z,165
2016-11-13T11:44:28.228Z,160
2016-11-13T11:45:28.526Z,160
2016-11-13T11:46:28.195Z,155
2016-11-13T11:47:28.186Z,150
2016-11-13T11:48:28.167Z,150
2016-11-13T11:49:28.147Z,145
2016-11-13T11:50:28.482Z,145
2016-11-13T11:51:28.116Z,145
2016-11-13T11:52:28.105Z,140
2016-11-13T11:53:28.088Z,140
2016-11-13T11:54:28.381Z,140
2016-11-13T11:55:28.413Z,145
2016-11-13T11:56:28.054Z,145
2016-11-13T11:57:28.048Z,145
2016-11-13T11:58:28.006Z,150
2016-11-13T11:59:28.031Z,145
2016-11-13T12:00:28.289Z,145
2016-11-13T12:01:27.957Z,145
2016-11-13T12:02:28.266Z,145
2016-11-13T12:03:27.926Z,145
2016-11-13T12:04:27.911Z,145
2016-11-13T12:05:27.953Z,145
2016-11-13T12:06:27.876Z,145
2016-11-13T12:07:27.867Z,145
2016-11-13T12:08:28.157Z,145
2016-11-13T12:09:27.826Z,140
2016-11-13T12:10:27.808Z,140
2016-11-13T12:11:27.798Z,140
2016-11-13T12:12:28.149Z,140
2016-11-13T12:13:27.762Z,140
2016-11-13T12:14:28.062Z,140
2016-11-13T12:15:28.044Z,140
2016-11-13T12:16:27.716Z,135
2016-11-13T12:17:27.687Z,135
2016-11-13T12:18:27.686Z,135
2016-11-13T12:19:27.658Z,135
2016-11-13T12:20:27.960Z,130
2016-11-13T12:21:28.252Z,125
2016-11-13T12:22:27.604Z,125
2016-11-13T12:23:27.595Z,120
2016-11-13T12:24:27.579Z,120
2016-11-13T12:25:27.563Z,115
2016-11-13T12:26:27.539Z,115
2016-11-13T12:27:27.840Z,115
2016-11-13T12:28:27.828Z,110
2016-11-13T12:29:27.813Z,110
2016-11-13T12:30:27.498Z,110
2016-11-13T12:31:27.503Z,110
2016-11-13T12:32:27.457Z,110
2016-11-13T12:33:27.741Z,110
2016-11-13T12:34:27.409Z,105
2016-11-13T12:35:27.397Z,105
2016-11-13T12:36:27.379Z,105
2016-11-13T12:37:27.364Z,105
2016-11-13T12:38:27.663Z,105
2016-11-13T12:39:27.334Z,110
2016-11-13T12:40:27.622Z,105
2016-11-13T12:41:27.319Z,105
2016-11-13T12:42:27.285Z,105
2016-11-13T12:43:27.264Z,105
2016-11-13T12:44:27.259Z,105
2016-11-13T12:45:27.540Z,105
2016-11-13T12:46:27.559Z,105
2016-11-13T12:47:27.193Z,105
2016-11-13T12:48:27.531Z,105
2016-11-13T12:49:27.172Z,105
2016-11-13T12:50:27.468Z,105
2016-11-13T12:51:27.129Z,100
2016-11-13T12:52:27.114Z,100
2016-11-13T12:53:27.104Z,100
2016-11-13T12:54:27.078Z,95
2016-11-13T12:55:27.384Z,95
2016-11-13T12:56:27.361Z,90
2016-11-13T12:57:27.346Z,90
2016-11-13T12:58:27.014Z,90
2016-11-13T12:59:26.999Z,85
2016-11-13T13:00:26.984Z,90
2016-11-13T13:01:26.968Z,90
2016-11-13T13:02:26.946Z,85
2016-11-13T13:03:27.252Z,90
2016-11-13T13:04:26.918Z,85
2016-11-13T13:05:26.897Z,85
2016-11-13T13:06:26.884Z,90
2016-11-13T13:07:27.048Z,90
2016-11-13T13:08:26.868Z,90
2016-11-13T13:09:27.153Z,90
2016-11-13T13:10:26.815Z,95
2016-11-13T13:11:26.811Z,90
2016-11-13T13:12:27.096Z,90
2016-11-13T13:13:27.079Z,90
2016-11-13T13:14:27.062Z,90
2016-11-13T13:15:27.065Z,90
2016-11-13T13:16:27.033Z,90
2016-11-13T13:17:27.020Z,85
2016-11-13T13:18:26.685Z,85
2016-11-13T13:19:26.663Z,85
2016-11-13T13:20:26.650Z,85
2016-11-13T13:21:26.631Z,85
2016-11-13T13:22:26.620Z,85
2016-11-13T13:23:26.911Z,80
2016-11-13T13:24:27.344Z,80
2016-11-13T13:25:26.557Z,80
2016-11-13T13:26:26.561Z,80
2016-11-13T13:27:26.843Z,80
2016-11-13T13:28:26.825Z,80
2016-11-13T13:29:27.123Z,80
2016-11-13T13:30:26.711Z,75
2016-11-13T13:31:26.779Z,75
2016-11-13T13:32:26.449Z,75
2016-11-13T13:33:26.743Z,70
2016-11-13T13:34:27.090Z,70
2016-11-13T13:35:26.407Z,70
2016-11-13T13:36:26.705Z,65
2016-11-13T13:37:26.397Z,65
2016-11-13T13:38:26.356Z,65
2016-11-13T13:39:26.335Z,65
2016-11-13T13:40:26.626Z,65
2016-11-13T13:41:26.294Z,65
2016-11-13T13:42:26.595Z,65
2016-11-13T13:43:26.313Z,60
2016-11-13T13:44:26.578Z,60
2016-11-13T13:45:26.231Z,60
2016-11-13T13:46:26.205Z,60
2016-11-13T13:47:27.138Z,60
2016-11-13T13:48:26.808Z,60
2016-11-13T13:49:26.159Z,60
2016-11-13T13:50:26.149Z,55
2016-11-13T13:51:26.127Z,55
2016-11-13T13:52:26.142Z,55
2016-11-13T13:53:26.403Z,55
2016-11-13T13:54:26.077Z,55
2016-11-13T13:55:26.061Z,55
2016-11-13T13:56:26.044Z,55
2016-11-13T13:57:26.036Z,55
2016-11-13T13:58:26.005Z,55
2016-11-13T13:59:25.997Z,55
2016-11-13T14:00:25.975Z,55
2016-11-13T14:01:26.272Z,55
2016-11-13T14:02:25.941Z,55
2016-11-13T14:03:25.925Z,55
2016-11-13T14:04:26.548Z,50
2016-11-13T14:05:26.204Z,50
2016-11-13T14:06:25.875Z,50
2016-11-13T14:07:25.890Z,50
2016-11-13T14:08:25.845Z,50
2016-11-13T14:09:25.833Z,50
2016-11-13T14:10:25.811Z,45
2016-11-13T14:11:25.795Z,45
2016-11-13T14:12:25.765Z,45
2016-11-13T14:13:25.753Z,45
2016-11-13T14:14:25.734Z,45
2016-11-13T14:15:26.653Z,45
2016-11-13T14:16:25.701Z,40
2016-11-13T14:17:26.001Z,40
2016-11-13T14:18:25.985Z,40
2016-11-13T14:19:25.656Z,40
2016-11-13T14:20:25.941Z,40
2016-11-13T14:21:25.610Z,40
2016-11-13T14:22:25.598Z,40
2016-11-13T14:23:25.914Z,40